Time;durP1;ratioP1;P1;durP2;ratioP2;P2;SDS_P1;SDS_P2;PMS_P1;PMS_P2;Temp;Humidity;BMP_temperature;BMP_pressure;BME280_temperature;BME280_humidity;BME280_pressure;Samples;Min_cycle;Max_cycle;Signal;HPM_P1;HPM_P2
2022/07/24 00:01:28;;;;;;;4.65;3.28;;;16.60;99.90;;;;;;5028682;28;20098;-69
2022/07/24 00:03:54;;;;;;;5.07;3.40;;;16.50;99.90;;;;;;5048001;28;20052;-69
2022/07/24 00:06:19;;;;;;;6.30;3.75;;;16.60;99.90;;;;;;5033577;28;20042;-69
2022/07/24 00:08:45;;;;;;;6.28;3.65;;;16.50;99.90;;;;;;5028746;28;20073;-68
2022/07/24 00:11:11;;;;;;;6.47;3.92;;;16.50;99.90;;;;;;5029979;28;20045;-69
2022/07/24 00:13:36;;;;;;;6.28;3.55;;;16.60;99.90;;;;;;5028073;28;20060;-69
2022/07/24 00:16:02;;;;;;;5.80;3.75;;;16.50;99.90;;;;;;5028260;28;20045;-68
2022/07/24 00:18:28;;;;;;;7.65;3.85;;;16.50;99.90;;;;;;5026983;28;20063;-69
2022/07/24 00:20:54;;;;;;;7.10;3.50;;;16.60;99.90;;;;;;5047514;28;20041;-69
2022/07/24 00:23:21;;;;;;;6.80;3.88;;;16.50;99.90;;;;;;5048050;28;20134;-69
2022/07/24 00:25:47;;;;;;;6.25;3.40;;;16.50;99.90;;;;;;5047462;28;20120;-68
2022/07/24 00:28:12;;;;;;;6.80;3.83;;;16.50;99.90;;;;;;5033128;28;20378;-69
2022/07/24 00:30:38;;;;;;;5.45;3.75;;;16.50;99.90;;;;;;5027352;28;20038;-69
2022/07/24 00:33:04;;;;;;;5.97;3.88;;;16.60;99.90;;;;;;5027089;28;20054;-69
2022/07/24 00:35:29;;;;;;;7.18;3.78;;;16.50;99.90;;;;;;5009560;28;20168;-69
2022/07/24 00:37:55;;;;;;;5.50;3.90;;;16.60;99.90;;;;;;5027699;28;20072;-69
2022/07/24 00:40:21;;;;;;;6.93;3.58;;;16.50;99.90;;;;;;5028025;28;20053;-69
2022/07/24 00:42:46;;;;;;;6.72;3.75;;;16.50;99.90;;;;;;5027819;28;20097;-69
2022/07/24 00:45:12;;;;;;;7.00;3.88;;;16.50;99.90;;;;;;5028192;28;20412;-67
2022/07/24 00:47:38;;;;;;;8.07;4.20;;;16.50;99.90;;;;;;5027548;28;20465;-67
2022/07/24 00:50:04;;;;;;;6.10;4.20;;;16.50;99.90;;;;;;5026197;28;20052;-69
2022/07/24 00:52:30;;;;;;;8.00;3.90;;;16.50;99.90;;;;;;5027722;28;20045;-68
2022/07/24 00:54:56;;;;;;;6.05;3.92;;;16.60;99.90;;;;;;5038973;28;20052;-67
2022/07/24 00:57:22;;;;;;;5.70;3.65;;;16.60;99.90;;;;;;5046336;28;20401;-68
2022/07/24 00:59:47;;;;;;;6.03;3.78;;;16.50;99.90;;;;;;5047841;28;20048;-68
2022/07/24 01:02:13;;;;;;;5.32;3.60;;;16.70;99.90;;;;;;5037679;28;20042;-68
2022/07/24 01:04:39;;;;;;;6.07;3.65;;;16.60;99.90;;;;;;5038988;28;20518;-68
2022/07/24 01:07:06;;;;;;;6.30;3.90;;;16.60;99.90;;;;;;5034665;28;20068;-68
2022/07/24 01:09:33;;;;;;;6.57;3.85;;;16.60;99.90;;;;;;5026808;28;20038;-68
2022/07/24 01:11:59;;;;;;;5.82;4.00;;;16.60;99.90;;;;;;5027130;28;20045;-68
2022/07/24 01:14:25;;;;;;;5.43;3.90;;;17.30;99.90;;;;;;5009458;28;20042;-68
2022/07/24 01:16:51;;;;;;;6.63;3.60;;;16.50;99.90;;;;;;5031828;28;20052;-69
2022/07/24 01:19:17;;;;;;;6.13;3.72;;;16.50;99.90;;;;;;5019649;28;20451;-68
2022/07/24 01:21:48;;;;;;;6.25;3.83;;;16.50;99.90;;;;;;5026970;28;20398;-68
2022/07/24 01:24:13;;;;;;;7.18;3.60;;;16.50;99.90;;;;;;5008715;28;20053;-68
2022/07/24 01:26:39;;;;;;;5.32;3.50;;;16.50;99.90;;;;;;5044063;28;20044;-69
2022/07/24 01:29:05;;;;;;;8.27;3.67;;;16.50;99.90;;;;;;5043580;28;20151;-68
2022/07/24 01:31:31;;;;;;;5.30;3.55;;;16.40;99.90;;;;;;5028645;28;20092;-68
2022/07/24 01:33:56;;;;;;;5.40;3.80;;;17.20;99.90;;;;;;5028546;28;20480;-68
2022/07/24 01:36:22;;;;;;;5.88;3.40;;;16.40;99.90;;;;;;5025944;28;20042;-68
2022/07/24 01:38:48;;;;;;;5.93;3.53;;;16.40;99.90;;;;;;5027338;28;20129;-68
2022/07/24 01:41:13;;;;;;;5.35;3.50;;;16.50;99.90;;;;;;5034236;28;20078;-68
2022/07/24 01:43:39;;;;;;;7.25;3.65;;;16.50;99.90;;;;;;5046673;28;20219;-68
2022/07/24 01:46:05;;;;;;;5.00;3.50;;;16.60;99.90;;;;;;5047619;28;20049;-68
2022/07/24 01:48:30;;;;;;;6.40;3.85;;;16.50;99.90;;;;;;5028841;28;20048;-68
2022/07/24 01:50:56;;;;;;;4.32;3.65;;;16.60;99.90;;;;;;5046353;28;20033;-68
2022/07/24 01:53:22;;;;;;;5.80;3.60;;;16.70;99.90;;;;;;5029238;28;20132;-68
2022/07/24 01:55:50;;;;;;;4.90;3.60;;;16.50;99.90;;;;;;5029104;28;20183;-68
2022/07/24 01:58:16;;;;;;;5.72;3.35;;;16.50;99.90;;;;;;5033239;28;20105;-68
2022/07/24 02:00:41;;;;;;;5.35;3.58;;;16.50;99.90;;;;;;5027012;28;20167;-68
2022/07/24 02:03:07;;;;;;;5.75;3.70;;;16.50;99.90;;;;;;5027052;28;20049;-68
2022/07/24 02:05:32;;;;;;;5.65;3.40;;;16.80;99.90;;;;;;5026209;28;20048;-68
2022/07/24 02:07:59;;;;;;;5.38;3.60;;;16.50;99.90;;;;;;5027406;28;20092;-68
2022/07/24 02:10:26;;;;;;;6.15;3.50;;;16.50;99.90;;;;;;5027077;28;20049;-68
2022/07/24 02:12:52;;;;;;;6.10;3.60;;;16.60;99.90;;;;;;5026772;28;20052;-68
2022/07/24 02:15:17;;;;;;;4.63;3.80;;;16.60;99.90;;;;;;5031127;28;20395;-69
2022/07/24 02:17:48;;;;;;;5.57;3.80;;;16.60;99.90;;;;;;5032485;28;20438;-69
2022/07/24 02:20:15;;;;;;;5.78;3.80;;;17.20;99.90;;;;;;5049334;28;20067;-68
2022/07/24 02:22:41;;;;;;;8.07;3.97;;;16.60;99.90;;;;;;5049886;28;20129;-68
2022/07/24 02:25:07;;;;;;;5.78;3.72;;;16.60;99.90;;;;;;5050575;28;20099;-68
2022/07/24 02:27:33;;;;;;;6.60;3.85;;;16.60;99.90;;;;;;5032633;28;20051;-68
2022/07/24 02:29:59;;;;;;;5.55;4.07;;;16.60;99.90;;;;;;5030255;28;20120;-67
2022/07/24 02:32:24;;;;;;;6.10;3.58;;;16.60;99.90;;;;;;5008800;28;20410;-68
2022/07/24 02:34:50;;;;;;;6.50;4.20;;;16.60;99.90;;;;;;5028717;28;20073;-68
2022/07/24 02:37:16;;;;;;;6.20;3.80;;;16.70;99.90;;;;;;5031186;28;20120;-68
2022/07/24 02:39:42;;;;;;;8.55;4.00;;;16.50;99.90;;;;;;5029503;28;20136;-68
2022/07/24 02:42:08;;;;;;;6.72;4.13;;;16.60;99.90;;;;;;5030471;28;20064;-68
2022/07/24 02:44:33;;;;;;;6.78;4.28;;;16.60;99.90;;;;;;5032273;28;20081;-68
2022/07/24 02:46:59;;;;;;;6.75;4.10;;;16.60;99.90;;;;;;5014135;28;20046;-68
2022/07/24 02:49:25;;;;;;;6.60;4.47;;;16.60;99.90;;;;;;5029960;28;20045;-68
2022/07/24 02:51:50;;;;;;;6.03;4.20;;;16.50;99.90;;;;;;5030057;28;20092;-68
2022/07/24 02:54:16;;;;;;;6.55;4.50;;;16.60;99.90;;;;;;5011630;28;20092;-68
2022/07/24 02:56:43;;;;;;;6.68;4.63;;;16.60;99.90;;;;;;5029972;28;20052;-68
2022/07/24 02:59:08;;;;;;;6.50;4.38;;;16.60;99.90;;;;;;5029587;28;20050;-68
2022/07/24 03:01:34;;;;;;;6.50;4.57;;;16.60;99.90;;;;;;5029679;28;20045;-68
2022/07/24 03:04:00;;;;;;;6.68;4.57;;;16.60;99.90;;;;;;5031232;28;20493;-68
2022/07/24 03:06:25;;;;;;;6.80;4.97;;;16.50;99.90;;;;;;5030182;28;20183;-68
2022/07/24 03:08:51;;;;;;;7.10;4.90;;;16.50;99.90;;;;;;5029583;28;20049;-68
2022/07/24 03:11:17;;;;;;;7.90;4.88;;;16.50;99.90;;;;;;5011002;28;20033;-68
2022/07/24 03:13:42;;;;;;;6.07;4.65;;;16.50;99.90;;;;;;5028860;28;20454;-68
2022/07/24 03:16:08;;;;;;;6.32;4.70;;;16.50;99.90;;;;;;5028574;28;20045;-68
2022/07/24 03:18:33;;;;;;;9.43;4.85;;;16.70;99.90;;;;;;5028554;28;20053;-68
2022/07/24 03:20:59;;;;;;;7.00;4.78;;;16.50;99.90;;;;;;5028417;28;20051;-67
2022/07/24 03:23:25;;;;;;;6.28;4.70;;;16.40;99.90;;;;;;5028897;28;20044;-68
2022/07/24 03:25:52;;;;;;;6.70;4.70;;;16.40;99.90;;;;;;5027918;28;20041;-68
2022/07/24 03:28:18;;;;;;;7.55;5.35;;;16.40;99.90;;;;;;5029115;28;20046;-68
2022/07/24 03:30:43;;;;;;;5.78;4.90;;;16.40;99.90;;;;;;5028484;28;20053;-67
2022/07/24 03:33:09;;;;;;;7.03;5.30;;;16.40;99.90;;;;;;5028138;28;20108;-67
2022/07/24 03:35:35;;;;;;;6.78;5.13;;;16.40;99.90;;;;;;5027957;28;20050;-67
2022/07/24 03:38:00;;;;;;;6.93;5.35;;;16.70;99.90;;;;;;5010855;28;20053;-67
2022/07/24 03:40:26;;;;;;;7.20;5.05;;;16.40;99.90;;;;;;5010311;28;20049;-67
2022/07/24 03:42:51;;;;;;;6.38;4.93;;;16.40;99.90;;;;;;5010269;28;20084;-68
2022/07/24 03:45:17;;;;;;;6.63;5.70;;;16.40;99.90;;;;;;5011282;28;20489;-68
2022/07/24 03:47:43;;;;;;;8.02;5.75;;;16.40;99.90;;;;;;5028551;28;20052;-68
2022/07/24 03:50:09;;;;;;;7.88;5.13;;;16.40;99.90;;;;;;5026995;28;20037;-68
2022/07/24 03:52:34;;;;;;;7.30;5.47;;;16.50;99.90;;;;;;5028459;28;20099;-68
2022/07/24 03:55:00;;;;;;;5.97;5.20;;;16.40;99.90;;;;;;5027793;28;20557;-67
2022/07/24 03:57:25;;;;;;;6.05;4.82;;;16.40;99.90;;;;;;5028176;28;20466;-67
2022/07/24 03:59:52;;;;;;;7.93;5.43;;;16.50;99.90;;;;;;5010623;28;20147;-67
2022/07/24 04:02:17;;;;;;;7.13;5.65;;;16.50;99.90;;;;;;4997582;28;20124;-67
2022/07/24 04:04:43;;;;;;;6.00;5.32;;;16.50;99.90;;;;;;5026352;28;20132;-70
2022/07/24 04:07:09;;;;;;;7.55;5.70;;;16.50;99.90;;;;;;5027989;28;20103;-70
2022/07/24 04:09:35;;;;;;;6.82;5.15;;;16.60;99.90;;;;;;5028129;28;20469;-70
2022/07/24 04:12:00;;;;;;;7.28;5.07;;;16.60;99.90;;;;;;5028145;28;20057;-67
2022/07/24 04:14:26;;;;;;;6.35;5.18;;;16.90;99.90;;;;;;5027992;28;20056;-68
2022/07/24 04:16:52;;;;;;;7.43;5.68;;;16.60;99.90;;;;;;5028715;28;20073;-68
2022/07/24 04:19:18;;;;;;;7.28;5.70;;;17.20;99.90;;;;;;5026868;28;20669;-68
2022/07/24 04:21:43;;;;;;;9.18;5.35;;;16.50;99.90;;;;;;5028104;28;20041;-67
2022/07/24 04:24:09;;;;;;;7.65;5.40;;;16.50;99.90;;;;;;5028528;28;20478;-67
2022/07/24 04:26:35;;;;;;;7.18;5.57;;;16.50;99.90;;;;;;5028101;28;20493;-68
2022/07/24 04:29:00;;;;;;;10.57;5.68;;;16.50;99.90;;;;;;5028244;28;20061;-68
2022/07/24 04:31:26;;;;;;;7.90;5.65;;;16.50;99.90;;;;;;5027773;28;20045;-68
2022/07/24 04:33:52;;;;;;;7.35;5.38;;;16.60;99.90;;;;;;5027556;28;20076;-68
2022/07/24 04:36:17;;;;;;;7.53;5.18;;;16.50;99.90;;;;;;5009797;28;20056;-67
2022/07/24 04:38:43;;;;;;;7.38;5.80;;;16.60;99.90;;;;;;5027456;28;20084;-68
2022/07/24 04:41:09;;;;;;;11.60;6.00;;;16.60;99.90;;;;;;5028685;28;20111;-67
2022/07/24 04:43:34;;;;;;;8.02;5.72;;;16.60;99.90;;;;;;5027959;28;20049;-68
2022/07/24 04:46:00;;;;;;;7.43;5.75;;;16.60;99.90;;;;;;5027816;28;20552;-68
2022/07/24 04:48:26;;;;;;;8.85;5.50;;;16.60;99.90;;;;;;5028013;28;20077;-68
2022/07/24 04:50:52;;;;;;;7.38;5.70;;;16.70;99.90;;;;;;5026832;28;20037;-68
2022/07/24 04:53:18;;;;;;;9.00;5.85;;;16.70;99.90;;;;;;5028000;28;20056;-68
2022/07/24 04:55:43;;;;;;;8.48;5.53;;;16.80;99.90;;;;;;5026300;28;20045;-68
2022/07/24 04:58:09;;;;;;;9.05;5.82;;;16.70;99.90;;;;;;5027925;28;20041;-68
2022/07/24 05:00:34;;;;;;;10.25;5.65;;;16.80;99.90;;;;;;5027441;28;20064;-68
2022/07/24 05:03:00;;;;;;;9.40;5.40;;;16.80;99.90;;;;;;5026881;28;20041;-68
2022/07/24 05:05:26;;;;;;;7.35;5.45;;;16.80;99.90;;;;;;5027081;28;20061;-68
2022/07/24 05:07:52;;;;;;;8.07;5.65;;;16.90;99.90;;;;;;5027721;28;20371;-68
2022/07/24 05:10:17;;;;;;;7.05;5.50;;;16.90;99.90;;;;;;5028680;28;20060;-68
2022/07/24 05:12:43;;;;;;;6.75;5.40;;;17.00;99.90;;;;;;5028541;28;20053;-68
2022/07/24 05:15:09;;;;;;;9.50;5.88;;;17.10;99.90;;;;;;5026784;28;20121;-68
2022/07/24 05:17:35;;;;;;;6.53;5.60;;;17.00;99.90;;;;;;5028031;28;20136;-67
2022/07/24 05:20:02;;;;;;;8.55;5.55;;;17.00;99.90;;;;;;5026713;28;20042;-68
2022/07/24 05:22:28;;;;;;;8.48;5.97;;;17.10;99.90;;;;;;5027380;28;20045;-68
2022/07/24 05:24:53;;;;;;;6.85;5.40;;;17.10;99.90;;;;;;5009287;28;20045;-67
2022/07/24 05:27:19;;;;;;;7.20;5.97;;;17.20;99.90;;;;;;5010288;28;20107;-68
2022/07/24 05:29:46;;;;;;;7.63;5.93;;;17.30;99.90;;;;;;5027213;28;20045;-68
2022/07/24 05:32:12;;;;;;;7.75;5.82;;;17.30;99.90;;;;;;4975358;28;20525;-68
2022/07/24 05:34:38;;;;;;;7.72;5.82;;;17.40;99.90;;;;;;5007158;28;20060;-68
2022/07/24 05:37:04;;;;;;;9.40;6.60;;;17.40;99.90;;;;;;5008107;28;20045;-68
2022/07/24 05:39:30;;;;;;;7.18;5.90;;;17.50;99.90;;;;;;5007427;28;20033;-68
2022/07/24 05:41:55;;;;;;;17.15;6.28;;;17.60;99.90;;;;;;5018783;28;20073;-68
2022/07/24 05:44:21;;;;;;;8.48;6.25;;;17.70;99.90;;;;;;5028900;28;20037;-68
2022/07/24 05:46:47;;;;;;;9.48;6.93;;;17.70;99.90;;;;;;5026092;28;20049;-68
2022/07/24 05:49:13;;;;;;;9.63;6.70;;;17.90;99.90;;;;;;5028530;28;20042;-68
2022/07/24 05:51:38;;;;;;;9.80;6.40;;;17.90;99.90;;;;;;5030008;28;20042;-68
2022/07/24 05:54:04;;;;;;;9.52;6.40;;;18.00;99.90;;;;;;5030719;28;20140;-68
2022/07/24 05:56:30;;;;;;;9.88;6.30;;;17.90;99.90;;;;;;5031055;28;20045;-68
2022/07/24 05:58:56;;;;;;;10.00;7.03;;;18.10;99.90;;;;;;5030916;28;20570;-67
2022/07/24 06:01:22;;;;;;;8.60;6.80;;;17.80;99.90;;;;;;5031895;28;20113;-67
2022/07/24 06:03:47;;;;;;;10.00;6.85;;;17.90;99.90;;;;;;5030231;28;20076;-67
2022/07/24 06:06:13;;;;;;;8.68;7.13;;;18.00;99.90;;;;;;5030357;28;20037;-67
2022/07/24 06:08:39;;;;;;;11.38;6.95;;;18.00;99.90;;;;;;5030851;28;20100;-67
2022/07/24 06:11:05;;;;;;;10.40;7.55;;;18.30;99.90;;;;;;5029377;28;20116;-68
2022/07/24 06:13:30;;;;;;;11.75;7.40;;;18.20;99.90;;;;;;5030899;28;20132;-68
2022/07/24 06:15:56;;;;;;;11.45;7.28;;;18.30;99.90;;;;;;5030576;28;20045;-68
2022/07/24 06:18:22;;;;;;;12.75;7.68;;;18.30;99.90;;;;;;5030172;28;20045;-69
2022/07/24 06:20:47;;;;;;;11.65;8.20;;;18.40;99.90;;;;;;5029844;28;20041;-69
2022/07/24 06:23:13;;;;;;;11.63;8.98;;;18.50;99.90;;;;;;5012832;28;20057;-68
2022/07/24 06:25:39;;;;;;;13.18;9.02;;;18.50;99.90;;;;;;5030389;28;20413;-69
2022/07/24 06:28:04;;;;;;;11.05;8.85;;;18.60;99.90;;;;;;5029940;28;20053;-68
2022/07/24 06:30:30;;;;;;;12.13;8.63;;;18.60;99.90;;;;;;5030531;28;20045;-68
2022/07/24 06:32:58;;;;;;;11.38;9.30;;;18.70;99.90;;;;;;5029786;28;20056;-69
2022/07/24 06:35:26;;;;;;;12.85;9.40;;;18.70;99.90;;;;;;5029149;28;20061;-69
2022/07/24 06:37:52;;;;;;;12.35;9.30;;;18.80;99.90;;;;;;5030432;28;20044;-69
2022/07/24 06:40:19;;;;;;;12.25;9.27;;;18.80;99.90;;;;;;5029490;28;20482;-68
2022/07/24 06:42:46;;;;;;;12.68;9.45;;;18.90;99.90;;;;;;5030534;28;20073;-70
2022/07/24 06:45:12;;;;;;;13.73;9.85;;;18.90;99.90;;;;;;5029656;28;20045;-68
2022/07/24 06:47:39;;;;;;;15.93;9.50;;;19.00;99.90;;;;;;5029648;28;20041;-69
2022/07/24 06:50:05;;;;;;;13.05;9.82;;;19.00;99.90;;;;;;5028797;28;20125;-69
2022/07/24 06:52:31;;;;;;;14.18;10.77;;;18.90;99.90;;;;;;5010252;28;20398;-68
2022/07/24 06:54:57;;;;;;;13.30;10.45;;;19.20;99.90;;;;;;5030429;28;20045;-69
2022/07/24 06:57:25;;;;;;;14.38;11.05;;;19.20;99.90;;;;;;5033196;28;20048;-69
2022/07/24 06:59:54;;;;;;;12.10;10.30;;;19.30;99.90;;;;;;5028361;28;20076;-68
2022/07/24 07:02:20;;;;;;;13.77;11.02;;;19.30;99.90;;;;;;5027905;28;20112;-69
2022/07/24 07:04:46;;;;;;;15.57;11.38;;;19.40;99.90;;;;;;5030074;28;20154;-69
2022/07/24 07:07:11;;;;;;;17.70;11.25;;;19.40;99.90;;;;;;5044210;28;20034;-69
2022/07/24 07:09:37;;;;;;;13.05;10.00;;;19.50;99.90;;;;;;5029718;28;20056;-68
2022/07/24 07:12:04;;;;;;;14.85;11.48;;;19.60;99.90;;;;;;5029673;28;20041;-69
2022/07/24 07:14:29;;;;;;;15.77;10.48;;;19.70;99.90;;;;;;5027895;28;20129;-69
2022/07/24 07:16:55;;;;;;;12.57;10.02;;;19.80;99.90;;;;;;5030189;28;20112;-69
2022/07/24 07:19:21;;;;;;;13.48;9.75;;;19.80;99.90;;;;;;5027944;28;20038;-69
2022/07/24 07:21:46;;;;;;;15.00;10.10;;;19.90;99.90;;;;;;5029020;28;20072;-69
2022/07/24 07:24:12;;;;;;;12.40;10.15;;;20.00;99.90;;;;;;5029274;28;20462;-69
2022/07/24 07:26:37;;;;;;;15.95;10.25;;;20.00;99.90;;;;;;5028558;28;20132;-69
2022/07/24 07:29:03;;;;;;;13.48;10.02;;;20.10;99.90;;;;;;5028941;28;20042;-69
2022/07/24 07:31:29;;;;;;;16.63;10.07;;;20.20;99.90;;;;;;5033304;28;20080;-69
2022/07/24 07:33:54;;;;;;;11.95;9.40;;;20.20;99.90;;;;;;5032619;28;20061;-69
2022/07/24 07:36:20;;;;;;;13.50;9.98;;;20.40;99.90;;;;;;5031343;28;20064;-69
2022/07/24 07:38:46;;;;;;;12.70;9.02;;;20.50;99.90;;;;;;5032737;28;20462;-69
2022/07/24 07:41:15;;;;;;;12.88;8.63;;;20.80;99.90;;;;;;5028846;28;20052;-69
2022/07/24 07:43:41;;;;;;;10.30;8.18;;;20.90;99.90;;;;;;5033413;28;20056;-69
2022/07/24 07:46:07;;;;;;;10.68;6.60;;;21.20;99.90;;;;;;5033142;28;20049;-69
2022/07/24 07:48:33;;;;;;;10.25;6.75;;;21.40;99.90;;;;;;5033674;28;20042;-69
2022/07/24 07:50:59;;;;;;;7.82;5.90;;;21.50;99.90;;;;;;5033167;28;20088;-69
2022/07/24 07:53:24;;;;;;;7.55;5.30;;;21.60;99.90;;;;;;5033037;28;20038;-69
2022/07/24 07:55:52;;;;;;;7.82;5.10;;;21.70;99.90;;;;;;5033192;28;20128;-69
2022/07/24 07:58:19;;;;;;;6.53;4.43;;;21.80;99.90;;;;;;5033241;28;20057;-70
2022/07/24 08:00:45;;;;;;;8.15;3.90;;;21.80;99.90;;;;;;5014808;28;20080;-69
2022/07/24 08:03:10;;;;;;;5.20;4.15;;;21.80;99.90;;;;;;5032936;28;20450;-69
2022/07/24 08:05:36;;;;;;;6.53;4.03;;;21.90;99.90;;;;;;5030722;28;20120;-69
2022/07/24 08:08:02;;;;;;;6.47;4.00;;;21.90;99.90;;;;;;5033086;28;20046;-69
2022/07/24 08:10:28;;;;;;;5.43;3.60;;;21.90;99.90;;;;;;5032882;28;20168;-69
2022/07/24 08:12:53;;;;;;;8.30;4.32;;;22.00;99.90;;;;;;5014547;28;20048;-69
2022/07/24 08:15:19;;;;;;;7.05;4.47;;;22.00;99.90;;;;;;5033182;28;20083;-69
2022/07/24 08:17:45;;;;;;;6.30;3.90;;;22.00;99.90;;;;;;5032765;28;20135;-69
2022/07/24 08:20:11;;;;;;;5.45;4.05;;;22.00;99.90;;;;;;5031549;28;20042;-69
2022/07/24 08:22:36;;;;;;;7.15;3.90;;;22.10;99.90;;;;;;5032351;28;20064;-72
2022/07/24 08:25:03;;;;;;;7.53;4.03;;;22.30;99.90;;;;;;5014946;28;20114;-72
2022/07/24 08:27:28;;;;;;;7.38;4.00;;;22.40;99.90;;;;;;5032477;28;20131;-72
2022/07/24 08:29:54;;;;;;;5.72;3.85;;;22.60;99.90;;;;;;5031572;28;20518;-72
2022/07/24 08:32:20;;;;;;;5.78;4.43;;;22.80;99.90;;;;;;5014492;28;20090;-72
2022/07/24 08:34:46;;;;;;;7.18;4.00;;;22.90;99.90;;;;;;5032561;28;20050;-72
2022/07/24 08:37:12;;;;;;;5.40;3.85;;;23.00;99.90;;;;;;5032385;28;20052;-72
2022/07/24 08:39:37;;;;;;;6.72;4.00;;;23.30;99.90;;;;;;5032610;28;20049;-72
2022/07/24 08:42:03;;;;;;;6.47;4.30;;;23.40;99.90;;;;;;5032305;28;20041;-72
2022/07/24 08:44:29;;;;;;;6.47;3.85;;;23.50;99.90;;;;;;5013451;28;20132;-72
2022/07/24 08:46:58;;;;;;;6.82;4.03;;;23.50;99.90;;;;;;5032164;28;20522;-72
2022/07/24 08:49:26;;;;;;;6.55;4.18;;;23.50;99.90;;;;;;5015075;28;20390;-72
2022/07/24 08:51:52;;;;;;;6.72;3.90;;;23.40;99.90;;;;;;5014090;28;20088;-73
2022/07/24 08:54:19;;;;;;;4.93;3.50;;;23.60;99.90;;;;;;5032545;28;20127;-72
2022/07/24 08:56:44;;;;;;;6.80;3.83;;;23.60;99.90;;;;;;5032740;28;20424;-72
2022/07/24 08:59:21;;;;;;;5.88;3.80;;;23.80;99.90;;;;;;5032489;28;20057;-74
2022/07/24 09:01:48;;;;;;;7.07;3.83;;;23.80;99.90;;;;;;5043794;28;20489;-88
2022/07/24 09:04:33;;;;;;;5.65;3.90;;;23.80;99.90;;;;;;5045508;28;20042;-85
2022/07/24 09:06:59;;;;;;;7.65;4.32;;;23.80;99.90;;;;;;5043029;28;20137;-89
2022/07/24 09:09:25;;;;;;;5.72;3.72;;;24.00;99.90;;;;;;5043632;28;20176;-85
2022/07/24 09:12:10;;;;;;;5.93;3.85;;;24.20;99.90;;;;;;5040457;28;20069;-85
2022/07/24 09:14:38;;;;;;;6.57;3.65;;;24.30;99.90;;;;;;5043075;28;20065;-86
2022/07/24 09:17:07;;;;;;;10.23;4.00;;;24.40;99.90;;;;;;5042603;28;20041;-88
2022/07/24 09:19:53;;;;;;;11.73;3.78;;;24.40;99.90;;;;;;5043887;28;20084;-86
2022/07/24 09:22:38;;;;;;;5.85;3.53;;;24.50;99.90;;;;;;5047448;28;20073;-88
2022/07/24 09:25:24;;;;;;;5.95;3.65;;;24.90;99.90;;;;;;5033919;28;20069;-88
2022/07/24 09:27:51;;;;;;;5.47;3.40;;;25.00;99.90;;;;;;5037481;28;20049;-88
2022/07/24 09:30:34;;;;;;;5.47;3.55;;;25.10;99.90;;;;;;5037535;28;20060;-87
2022/07/24 09:33:11;;;;;;;5.72;3.72;;;25.20;99.90;;;;;;5019653;28;20057;-88
2022/07/24 09:35:42;;;;;;;6.95;3.47;;;25.30;99.90;;;;;;5020093;28;20054;-88
2022/07/24 09:38:10;;;;;;;5.20;3.33;;;25.50;99.90;;;;;;5026068;28;20391;-88
2022/07/24 09:40:40;;;;;;;8.05;3.30;;;25.50;99.90;;;;;;5032587;28;20046;-87
2022/07/24 09:43:13;;;;;;;6.68;3.40;;;25.60;99.90;;;;;;5036740;28;20045;-88
2022/07/24 09:45:52;;;;;;;6.32;3.30;;;25.70;99.90;;;;;;5036493;28;20046;-88
2022/07/24 09:48:22;;;;;;;5.68;3.15;;;25.90;99.90;;;;;;5036738;28;20057;-83
2022/07/24 09:50:55;;;;;;;5.63;3.28;;;26.10;99.90;;;;;;5037764;28;20094;-86
2022/07/24 09:53:23;;;;;;;7.13;3.28;;;26.50;99.90;;;;;;5038582;28;20049;-88
2022/07/24 09:55:58;;;;;;;6.13;3.22;;;27.40;99.90;;;;;;5019875;28;20477;-86
2022/07/24 09:58:25;;;;;;;6.57;3.20;;;27.70;99.90;;;;;;5037191;28;20103;-89
2022/07/24 10:00:57;;;;;;;5.40;3.30;;;29.20;99.90;;;;;;5036715;28;20447;-86
2022/07/24 10:03:28;;;;;;;4.70;3.00;;;30.40;98.20;;;;;;5037166;28;20045;-89
2022/07/24 10:05:56;;;;;;;5.07;2.70;;;31.50;96.40;;;;;;5019090;28;20394;-87
2022/07/24 10:08:22;;;;;;;4.57;2.60;;;32.30;95.50;;;;;;5037541;28;20045;-90
2022/07/24 10:10:50;;;;;;;4.35;2.42;;;32.70;94.90;;;;;;5038048;28;20044;-88
2022/07/24 10:13:16;;;;;;;5.38;2.30;;;32.50;93.80;;;;;;5036420;28;20449;-87
2022/07/24 10:16:09;;;;;;;4.68;2.60;;;31.10;94.80;;;;;;5035566;28;20041;-88
2022/07/24 10:19:04;;;;;;;5.47;2.45;;;31.10;94.60;;;;;;5019476;28;20449;-88
2022/07/24 10:21:31;;;;;;;4.25;2.83;;;30.70;94.70;;;;;;5025862;28;20049;-88
2022/07/24 10:24:11;;;;;;;3.97;2.50;;;29.80;95.60;;;;;;5037708;28;20046;-87
2022/07/24 10:26:43;;;;;;;3.78;2.40;;;29.30;96.10;;;;;;5034745;28;20129;-87
2022/07/24 10:29:13;;;;;;;5.50;2.67;;;28.90;96.70;;;;;;5038225;28;20041;-84
2022/07/24 10:31:41;;;;;;;6.60;2.53;;;28.20;96.80;;;;;;5035835;28;20429;-85
2022/07/24 10:34:27;;;;;;;3.90;2.40;;;27.60;97.30;;;;;;5035662;28;20060;-84
2022/07/24 10:37:22;;;;;;;5.00;2.53;;;27.30;97.70;;;;;;5016129;28;20037;-87
2022/07/24 10:39:48;;;;;;;4.72;2.45;;;27.40;97.70;;;;;;5031480;28;20096;-86
2022/07/24 10:42:13;;;;;;;8.13;2.58;;;27.60;98.10;;;;;;5034340;28;20037;-87
2022/07/24 10:44:39;;;;;;;6.93;2.45;;;27.80;97.60;;;;;;5035354;28;20415;-86
2022/07/24 10:47:08;;;;;;;4.93;2.40;;;27.80;97.50;;;;;;5017632;28;20042;-86
2022/07/24 10:49:35;;;;;;;6.15;2.70;;;27.00;97.70;;;;;;5034250;28;20194;-85
2022/07/24 10:52:00;;;;;;;4.55;2.58;;;27.20;97.70;;;;;;5016801;28;20155;-86
2022/07/24 10:54:26;;;;;;;4.70;2.42;;;27.30;97.60;;;;;;5034443;28;20125;-88
2022/07/24 10:56:51;;;;;;;5.13;2.30;;;27.50;97.80;;;;;;5036768;28;20037;-84
2022/07/24 10:59:33;;;;;;;6.20;2.38;;;27.80;97.20;;;;;;5033870;28;20072;-74
2022/07/24 11:02:27;;;;;;;3.55;2.40;;;27.60;96.60;;;;;;5030944;28;20063;-74
2022/07/24 11:05:31;;;;;;;4.82;2.60;;;27.40;97.40;;;;;;5031260;28;20101;-75
2022/07/24 11:08:12;;;;;;;4.10;2.30;;;27.40;97.50;;;;;;5023358;28;20107;-74
2022/07/24 11:10:52;;;;;;;4.90;2.30;;;27.70;97.50;;;;;;5030808;28;20137;-74
2022/07/24 11:13:32;;;;;;;5.85;2.50;;;28.50;97.00;;;;;;5029086;28;20405;-74
2022/07/24 11:16:10;;;;;;;4.95;2.55;;;29.60;96.20;;;;;;5030251;28;20041;-74
2022/07/24 11:19:00;;;;;;;5.18;2.40;;;31.00;96.00;;;;;;5029629;28;20089;-74
2022/07/24 11:21:29;;;;;;;5.88;2.50;;;32.90;94.20;;;;;;5022788;28;20057;-72
2022/07/24 11:24:19;;;;;;;5.75;2.80;;;34.60;91.70;;;;;;5030829;28;20153;-71
2022/07/24 11:26:52;;;;;;;3.67;2.22;;;35.00;90.80;;;;;;5029710;28;20049;-72
2022/07/24 11:29:34;;;;;;;4.53;2.60;;;35.90;90.40;;;;;;5030266;28;20470;-72
2022/07/24 11:32:07;;;;;;;7.32;2.40;;;37.00;89.00;;;;;;5032667;28;20356;-70
2022/07/24 11:34:35;;;;;;;3.28;2.22;;;36.30;87.10;;;;;;5030015;28;20046;-70
2022/07/24 11:37:02;;;;;;;6.68;2.38;;;37.40;86.80;;;;;;5031756;28;20045;-70
2022/07/24 11:39:33;;;;;;;5.55;2.60;;;37.70;85.20;;;;;;5032145;28;20037;-71
2022/07/24 11:42:01;;;;;;;3.75;2.05;;;38.00;83.10;;;;;;5033188;28;20120;-71
2022/07/24 11:44:34;;;;;;;3.20;2.10;;;39.20;83.50;;;;;;5033448;28;20393;-71
2022/07/24 11:47:06;;;;;;;4.30;2.30;;;39.90;80.50;;;;;;5031763;28;20069;-71
2022/07/24 11:50:02;;;;;;;3.20;2.00;;;39.00;79.30;;;;;;5033532;28;20037;-71
2022/07/24 11:52:31;;;;;;;4.97;2.17;;;37.80;78.80;;;;;;5032962;28;20131;-71
2022/07/24 11:55:09;;;;;;;4.65;2.05;;;38.60;78.70;;;;;;5033118;28;20038;-70
2022/07/24 11:57:37;;;;;;;4.13;2.13;;;38.60;78.60;;;;;;5033301;28;20454;-70
2022/07/24 12:00:14;;;;;;;4.05;1.98;;;39.20;75.50;;;;;;5013953;28;20272;-70
2022/07/24 12:02:45;;;;;;;3.38;2.10;;;39.70;77.30;;;;;;5032400;28;20439;-71
2022/07/24 12:05:11;;;;;;;3.08;1.98;;;40.90;75.30;;;;;;5033184;28;20100;-71
2022/07/24 12:07:36;;;;;;;7.10;2.20;;;40.20;73.60;;;;;;5033162;28;20424;-71
2022/07/24 12:10:03;;;;;;;2.88;1.98;;;40.30;73.80;;;;;;5015239;28;20057;-70
2022/07/24 12:12:30;;;;;;;3.95;2.00;;;39.20;72.90;;;;;;5032769;28;20398;-70
2022/07/24 12:15:13;;;;;;;5.85;2.05;;;38.30;73.50;;;;;;5032777;28;20455;-71
2022/07/24 12:18:00;;;;;;;3.00;2.00;;;38.40;73.60;;;;;;5015119;28;20053;-71
2022/07/24 12:20:36;;;;;;;2.85;2.00;;;38.50;73.30;;;;;;5032783;28;20049;-71
2022/07/24 12:23:04;;;;;;;3.60;2.00;;;38.00;73.40;;;;;;5032677;28;20068;-71
2022/07/24 12:25:30;;;;;;;4.22;2.03;;;36.80;74.60;;;;;;5032707;28;20500;-71
2022/07/24 12:28:08;;;;;;;4.50;1.98;;;34.40;76.30;;;;;;5032356;28;20087;-70
2022/07/24 12:30:42;;;;;;;3.10;1.95;;;33.00;78.00;;;;;;5032512;28;20516;-70
2022/07/24 12:33:18;;;;;;;3.97;2.10;;;32.20;79.10;;;;;;5032016;28;20068;-71
2022/07/24 12:36:14;;;;;;;6.20;2.30;;;30.80;79.60;;;;;;5032427;28;20115;-70
2022/07/24 12:38:49;;;;;;;4.60;2.15;;;30.30;79.80;;;;;;5013030;28;20060;-70
2022/07/24 12:41:17;;;;;;;4.60;2.20;;;29.90;81.10;;;;;;5030951;28;20516;-70
2022/07/24 12:44:04;;;;;;;4.15;2.40;;;29.50;81.90;;;;;;5030247;28;20064;-70
2022/07/24 12:46:32;;;;;;;4.55;2.10;;;29.40;83.50;;;;;;5008392;28;20057;-71
2022/07/24 12:49:04;;;;;;;3.78;2.28;;;29.20;83.60;;;;;;5032299;28;20041;-70
2022/07/24 12:51:53;;;;;;;3.83;2.35;;;29.20;84.50;;;;;;5032362;28;20045;-70